sensor_id;sensor_type;location;lat;lon;timestamp;temperature;humidity
12504;DHT22;6316;48.118;-1.690;2023-05-08T00:00:19;15.20;99.90
12504;DHT22;6316;48.118;-1.690;2023-05-08T00:02:45;15.30;99.90
12504;DHT22;6316;48.118;-1.690;2023-05-08T00:05:10;15.20;99.90
12504;DHT22;6316;48.118;-1.690;2023-05-08T00:07:36;15.30;99.90
12504;DHT22;6316;48.118;-1.690;2023-05-08T00:10:07;15.30;99.90
12504;DHT22;6316;48.118;-1.690;2023-05-08T00:12:33;15.30;99.90
12504;DHT22;6316;48.118;-1.690;2023-05-08T00:14:59;15.30;99.90
12504;DHT22;6316;48.118;-1.690;2023-05-08T00:17:25;15.30;99.90
12504;DHT22;6316;48.118;-1.690;2023-05-08T00:19:50;15.30;99.90
12504;DHT22;6316;48.118;-1.690;2023-05-08T00:22:18;15.30;99.90
12504;DHT22;6316;48.118;-1.690;2023-05-08T00:24:43;15.30;99.90
12504;DHT22;6316;48.118;-1.690;2023-05-08T00:27:09;15.40;99.90
12504;DHT22;6316;48.118;-1.690;2023-05-08T00:29:35;15.40;99.90
12504;DHT22;6316;48.118;-1.690;2023-05-08T00:32:01;15.40;99.90
12504;DHT22;6316;48.118;-1.690;2023-05-08T00:34:27;15.40;99.90
12504;DHT22;6316;48.118;-1.690;2023-05-08T00:36:52;15.40;99.90
12504;DHT22;6316;48.118;-1.690;2023-05-08T00:39:20;15.40;99.90
12504;DHT22;6316;48.118;-1.690;2023-05-08T00:41:46;15.40;99.90
12504;DHT22;6316;48.118;-1.690;2023-05-08T00:44:12;15.40;99.90
12504;DHT22;6316;48.118;-1.690;2023-05-08T00:46:37;15.40;99.90
12504;DHT22;6316;48.118;-1.690;2023-05-08T00:49:04;15.40;99.90
12504;DHT22;6316;48.118;-1.690;2023-05-08T00:51:31;15.40;99.90
12504;DHT22;6316;48.118;-1.690;2023-05-08T00:53:58;15.40;99.90
12504;DHT22;6316;48.118;-1.690;2023-05-08T00:56:24;15.40;99.90
12504;DHT22;6316;48.118;-1.690;2023-05-08T00:58:50;15.40;99.90
12504;DHT22;6316;48.118;-1.690;2023-05-08T01:01:16;15.40;99.90
12504;DHT22;6316;48.118;-1.690;2023-05-08T01:03:43;15.50;99.90
12504;DHT22;6316;48.118;-1.690;2023-05-08T01:06:09;15.50;99.90
12504;DHT22;6316;48.118;-1.690;2023-05-08T01:08:35;15.50;99.90
12504;DHT22;6316;48.118;-1.690;2023-05-08T01:14:10;15.50;99.90
12504;DHT22;6316;48.118;-1.690;2023-05-08T01:30:30;15.50;99.90
12504;DHT22;6316;48.118;-1.690;2023-05-08T01:33:09;15.50;99.90
12504;DHT22;6316;48.118;-1.690;2023-05-08T01:35:45;15.50;99.90
12504;DHT22;6316;48.118;-1.690;2023-05-08T01:41:15;15.60;99.90
12504;DHT22;6316;48.118;-1.690;2023-05-08T01:46:15;15.50;99.90
12504;DHT22;6316;48.118;-1.690;2023-05-08T01:48:48;15.50;99.90
12504;DHT22;6316;48.118;-1.690;2023-05-08T01:51:19;15.50;99.90
12504;DHT22;6316;48.118;-1.690;2023-05-08T01:53:53;15.50;99.90
12504;DHT22;6316;48.118;-1.690;2023-05-08T01:56:22;15.50;99.90
12504;DHT22;6316;48.118;-1.690;2023-05-08T01:58:53;15.50;99.90
12504;DHT22;6316;48.118;-1.690;2023-05-08T02:01:21;15.50;99.90
12504;DHT22;6316;48.118;-1.690;2023-05-08T02:03:48;15.50;99.90
12504;DHT22;6316;48.118;-1.690;2023-05-08T02:06:16;15.50;99.90
12504;DHT22;6316;48.118;-1.690;2023-05-08T02:08:44;15.50;99.90
12504;DHT22;6316;48.118;-1.690;2023-05-08T02:11:11;15.50;99.90
12504;DHT22;6316;48.118;-1.690;2023-05-08T02:13:38;15.60;99.90
12504;DHT22;6316;48.118;-1.690;2023-05-08T02:16:07;15.50;99.90
12504;DHT22;6316;48.118;-1.690;2023-05-08T02:18:33;15.60;99.90
12504;DHT22;6316;48.118;-1.690;2023-05-08T02:21:02;15.60;99.90
12504;DHT22;6316;48.118;-1.690;2023-05-08T02:23:29;15.60;99.90
12504;DHT22;6316;48.118;-1.690;2023-05-08T02:25:56;15.60;99.90
12504;DHT22;6316;48.118;-1.690;2023-05-08T02:28:22;15.60;99.90
12504;DHT22;6316;48.118;-1.690;2023-05-08T02:30:49;15.60;99.90
12504;DHT22;6316;48.118;-1.690;2023-05-08T02:33:17;15.60;99.90
12504;DHT22;6316;48.118;-1.690;2023-05-08T02:35:44;15.60;99.90
12504;DHT22;6316;48.118;-1.690;2023-05-08T02:38:12;15.60;99.90
12504;DHT22;6316;48.118;-1.690;2023-05-08T02:40:45;15.60;99.90
12504;DHT22;6316;48.118;-1.690;2023-05-08T02:43:11;15.60;99.90
12504;DHT22;6316;48.118;-1.690;2023-05-08T02:46:34;15.60;99.90
12504;DHT22;6316;48.118;-1.690;2023-05-08T02:48:50;15.60;99.90
12504;DHT22;6316;48.118;-1.690;2023-05-08T02:52:12;15.60;99.90
12504;DHT22;6316;48.118;-1.690;2023-05-08T02:54:42;15.60;99.90
12504;DHT22;6316;48.118;-1.690;2023-05-08T02:57:26;15.60;99.90
12504;DHT22;6316;48.118;-1.690;2023-05-08T03:02:38;15.60;99.90
12504;DHT22;6316;48.118;-1.690;2023-05-08T03:05:12;15.50;99.90
12504;DHT22;6316;48.118;-1.690;2023-05-08T03:07:40;15.60;99.90
12504;DHT22;6316;48.118;-1.690;2023-05-08T03:10:10;15.50;99.90
12504;DHT22;6316;48.118;-1.690;2023-05-08T03:12:42;15.60;99.90
12504;DHT22;6316;48.118;-1.690;2023-05-08T03:15:19;15.50;99.90
12504;DHT22;6316;48.118;-1.690;2023-05-08T03:17:51;15.60;99.90
12504;DHT22;6316;48.118;-1.690;2023-05-08T03:20:20;15.50;99.90
12504;DHT22;6316;48.118;-1.690;2023-05-08T03:22:47;15.50;99.90
12504;DHT22;6316;48.118;-1.690;2023-05-08T03:25:16;15.50;99.90
12504;DHT22;6316;48.118;-1.690;2023-05-08T03:27:44;15.40;99.90
12504;DHT22;6316;48.118;-1.690;2023-05-08T03:30:11;15.40;99.90
12504;DHT22;6316;48.118;-1.690;2023-05-08T03:32:38;15.40;99.90
12504;DHT22;6316;48.118;-1.690;2023-05-08T03:35:05;15.40;99.90
12504;DHT22;6316;48.118;-1.690;2023-05-08T03:37:32;15.40;99.90
12504;DHT22;6316;48.118;-1.690;2023-05-08T03:39:58;15.30;99.90
12504;DHT22;6316;48.118;-1.690;2023-05-08T03:42:24;15.40;99.90
12504;DHT22;6316;48.118;-1.690;2023-05-08T03:44:51;15.30;99.90
12504;DHT22;6316;48.118;-1.690;2023-05-08T03:47:18;15.30;99.90
12504;DHT22;6316;48.118;-1.690;2023-05-08T03:49:45;15.30;99.90
12504;DHT22;6316;48.118;-1.690;2023-05-08T03:52:14;15.30;99.90
12504;DHT22;6316;48.118;-1.690;2023-05-08T03:54:41;15.30;99.90
12504;DHT22;6316;48.118;-1.690;2023-05-08T03:57:07;15.30;99.90
12504;DHT22;6316;48.118;-1.690;2023-05-08T03:59:47;15.30;99.90
12504;DHT22;6316;48.118;-1.690;2023-05-08T04:02:24;15.30;99.90
12504;DHT22;6316;48.118;-1.690;2023-05-08T04:04:59;15.20;99.90
12504;DHT22;6316;48.118;-1.690;2023-05-08T04:07:42;15.30;99.90
12504;DHT22;6316;48.118;-1.690;2023-05-08T04:10:18;15.20;99.90
12504;DHT22;6316;48.118;-1.690;2023-05-08T04:12:56;15.20;99.90
12504;DHT22;6316;48.118;-1.690;2023-05-08T04:15:29;15.30;99.90
12504;DHT22;6316;48.118;-1.690;2023-05-08T04:17:59;15.30;99.90
12504;DHT22;6316;48.118;-1.690;2023-05-08T04:20:29;15.30;99.90
12504;DHT22;6316;48.118;-1.690;2023-05-08T04:22:56;15.30;99.90
12504;DHT22;6316;48.118;-1.690;2023-05-08T04:25:24;15.30;99.90
12504;DHT22;6316;48.118;-1.690;2023-05-08T04:27:50;15.30;99.90
12504;DHT22;6316;48.118;-1.690;2023-05-08T04:30:17;15.30;99.90
12504;DHT22;6316;48.118;-1.690;2023-05-08T04:32:43;15.30;99.90
12504;DHT22;6316;48.118;-1.690;2023-05-08T04:35:09;15.30;99.90
12504;DHT22;6316;48.118;-1.690;2023-05-08T04:37:37;15.30;99.90
12504;DHT22;6316;48.118;-1.690;2023-05-08T04:40:03;15.40;99.90
12504;DHT22;6316;48.118;-1.690;2023-05-08T04:42:29;15.30;99.90
12504;DHT22;6316;48.118;-1.690;2023-05-08T04:44:55;15.40;99.90
12504;DHT22;6316;48.118;-1.690;2023-05-08T04:47:21;15.30;99.90
12504;DHT22;6316;48.118;-1.690;2023-05-08T04:49:48;15.40;99.90
12504;DHT22;6316;48.118;-1.690;2023-05-08T04:52:14;15.30;99.90
12504;DHT22;6316;48.118;-1.690;2023-05-08T04:54:40;15.30;99.90
12504;DHT22;6316;48.118;-1.690;2023-05-08T04:57:05;15.40;99.90
12504;DHT22;6316;48.118;-1.690;2023-05-08T04:59:32;15.40;99.90
12504;DHT22;6316;48.118;-1.690;2023-05-08T05:01:58;15.40;99.90
12504;DHT22;6316;48.118;-1.690;2023-05-08T05:04:27;15.40;99.90
12504;DHT22;6316;48.118;-1.690;2023-05-08T05:06:53;15.40;99.90
12504;DHT22;6316;48.118;-1.690;2023-05-08T05:09:18;15.40;99.90
12504;DHT22;6316;48.118;-1.690;2023-05-08T05:11:44;15.40;99.90
12504;DHT22;6316;48.118;-1.690;2023-05-08T05:14:10;15.40;99.90
12504;DHT22;6316;48.118;-1.690;2023-05-08T05:16:35;15.40;99.90
12504;DHT22;6316;48.118;-1.690;2023-05-08T05:19:01;15.50;99.90
12504;DHT22;6316;48.118;-1.690;2023-05-08T05:21:26;15.50;99.90
12504;DHT22;6316;48.118;-1.690;2023-05-08T05:23:52;15.50;99.90
12504;DHT22;6316;48.118;-1.690;2023-05-08T05:26:18;15.50;99.90
12504;DHT22;6316;48.118;-1.690;2023-05-08T05:28:44;15.50;99.90
12504;DHT22;6316;48.118;-1.690;2023-05-08T05:31:09;15.50;99.90
12504;DHT22;6316;48.118;-1.690;2023-05-08T05:33:35;15.50;99.90
12504;DHT22;6316;48.118;-1.690;2023-05-08T05:36:01;15.50;99.90
12504;DHT22;6316;48.118;-1.690;2023-05-08T05:38:27;15.60;99.90
12504;DHT22;6316;48.118;-1.690;2023-05-08T05:40:52;15.60;99.90
12504;DHT22;6316;48.118;-1.690;2023-05-08T05:43:18;15.60;99.90
12504;DHT22;6316;48.118;-1.690;2023-05-08T05:45:44;15.60;99.90
12504;DHT22;6316;48.118;-1.690;2023-05-08T05:48:09;15.60;99.90
12504;DHT22;6316;48.118;-1.690;2023-05-08T05:50:35;15.50;99.90
12504;DHT22;6316;48.118;-1.690;2023-05-08T05:53:02;15.60;99.90
12504;DHT22;6316;48.118;-1.690;2023-05-08T05:55:28;15.60;99.90
12504;DHT22;6316;48.118;-1.690;2023-05-08T05:57:53;15.60;99.90
12504;DHT22;6316;48.118;-1.690;2023-05-08T06:00:20;15.60;99.90
12504;DHT22;6316;48.118;-1.690;2023-05-08T06:02:46;15.60;99.90
12504;DHT22;6316;48.118;-1.690;2023-05-08T06:05:11;15.60;99.90
12504;DHT22;6316;48.118;-1.690;2023-05-08T06:07:37;15.60;99.90
12504;DHT22;6316;48.118;-1.690;2023-05-08T06:10:04;15.60;99.90
12504;DHT22;6316;48.118;-1.690;2023-05-08T06:12:30;15.60;99.90
12504;DHT22;6316;48.118;-1.690;2023-05-08T06:14:56;15.60;99.90
12504;DHT22;6316;48.118;-1.690;2023-05-08T06:17:21;15.60;99.90
12504;DHT22;6316;48.118;-1.690;2023-05-08T06:19:47;15.60;99.90
12504;DHT22;6316;48.118;-1.690;2023-05-08T06:22:19;15.60;99.90
12504;DHT22;6316;48.118;-1.690;2023-05-08T06:24:47;15.60;99.90
12504;DHT22;6316;48.118;-1.690;2023-05-08T06:27:13;15.60;99.90
12504;DHT22;6316;48.118;-1.690;2023-05-08T06:29:38;15.60;99.90
12504;DHT22;6316;48.118;-1.690;2023-05-08T06:32:04;15.60;99.90
12504;DHT22;6316;48.118;-1.690;2023-05-08T06:34:30;15.60;99.90
12504;DHT22;6316;48.118;-1.690;2023-05-08T06:36:56;15.60;99.90
12504;DHT22;6316;48.118;-1.690;2023-05-08T06:39:22;15.60;99.90
12504;DHT22;6316;48.118;-1.690;2023-05-08T06:41:47;15.60;99.90
12504;DHT22;6316;48.118;-1.690;2023-05-08T06:44:14;15.60;99.90
12504;DHT22;6316;48.118;-1.690;2023-05-08T06:46:39;15.60;99.90
12504;DHT22;6316;48.118;-1.690;2023-05-08T06:49:05;15.60;99.90
12504;DHT22;6316;48.118;-1.690;2023-05-08T06:51:31;15.60;99.90
12504;DHT22;6316;48.118;-1.690;2023-05-08T06:53:57;15.60;99.90
12504;DHT22;6316;48.118;-1.690;2023-05-08T06:56:23;15.60;99.90
12504;DHT22;6316;48.118;-1.690;2023-05-08T06:58:49;15.60;99.90
12504;DHT22;6316;48.118;-1.690;2023-05-08T07:01:15;15.60;99.90
12504;DHT22;6316;48.118;-1.690;2023-05-08T07:03:40;15.60;99.90
12504;DHT22;6316;48.118;-1.690;2023-05-08T07:06:07;15.60;99.90
12504;DHT22;6316;48.118;-1.690;2023-05-08T07:08:34;15.60;99.90
12504;DHT22;6316;48.118;-1.690;2023-05-08T07:11:00;15.60;99.90
12504;DHT22;6316;48.118;-1.690;2023-05-08T07:13:26;15.60;99.90
12504;DHT22;6316;48.118;-1.690;2023-05-08T07:15:51;15.60;99.90
12504;DHT22;6316;48.118;-1.690;2023-05-08T07:18:17;15.70;99.90
12504;DHT22;6316;48.118;-1.690;2023-05-08T07:20:42;15.70;99.90
12504;DHT22;6316;48.118;-1.690;2023-05-08T07:23:08;15.70;99.90
12504;DHT22;6316;48.118;-1.690;2023-05-08T07:25:34;15.70;99.90
12504;DHT22;6316;48.118;-1.690;2023-05-08T07:28:01;15.80;99.90
12504;DHT22;6316;48.118;-1.690;2023-05-08T07:30:26;15.80;99.90
12504;DHT22;6316;48.118;-1.690;2023-05-08T07:32:52;15.90;99.90
12504;DHT22;6316;48.118;-1.690;2023-05-08T07:35:18;15.90;99.90
12504;DHT22;6316;48.118;-1.690;2023-05-08T07:37:44;16.00;99.90
12504;DHT22;6316;48.118;-1.690;2023-05-08T07:40:10;16.00;99.90
12504;DHT22;6316;48.118;-1.690;2023-05-08T07:42:42;16.10;99.90
12504;DHT22;6316;48.118;-1.690;2023-05-08T07:45:09;16.10;99.90
12504;DHT22;6316;48.118;-1.690;2023-05-08T07:47:36;16.20;99.90
12504;DHT22;6316;48.118;-1.690;2023-05-08T07:50:02;16.30;99.90
12504;DHT22;6316;48.118;-1.690;2023-05-08T07:52:28;16.30;99.90
12504;DHT22;6316;48.118;-1.690;2023-05-08T07:54:53;16.40;99.90
12504;DHT22;6316;48.118;-1.690;2023-05-08T07:57:19;16.40;99.90
12504;DHT22;6316;48.118;-1.690;2023-05-08T07:59:45;16.50;99.90
12504;DHT22;6316;48.118;-1.690;2023-05-08T08:02:10;16.50;99.90
12504;DHT22;6316;48.118;-1.690;2023-05-08T08:04:36;16.60;99.90
12504;DHT22;6316;48.118;-1.690;2023-05-08T08:07:02;16.70;99.90
12504;DHT22;6316;48.118;-1.690;2023-05-08T08:09:27;16.70;99.90
12504;DHT22;6316;48.118;-1.690;2023-05-08T08:11:53;16.80;99.90
12504;DHT22;6316;48.118;-1.690;2023-05-08T08:14:19;16.80;99.90
12504;DHT22;6316;48.118;-1.690;2023-05-08T08:16:44;16.80;99.90
12504;DHT22;6316;48.118;-1.690;2023-05-08T08:19:10;16.80;99.90
12504;DHT22;6316;48.118;-1.690;2023-05-08T08:21:41;16.80;99.90
12504;DHT22;6316;48.118;-1.690;2023-05-08T08:24:06;16.80;99.90
12504;DHT22;6316;48.118;-1.690;2023-05-08T08:26:32;16.80;99.90
12504;DHT22;6316;48.118;-1.690;2023-05-08T08:28:58;16.80;99.90
12504;DHT22;6316;48.118;-1.690;2023-05-08T08:31:24;16.90;99.90
12504;DHT22;6316;48.118;-1.690;2023-05-08T08:33:49;16.90;99.90
12504;DHT22;6316;48.118;-1.690;2023-05-08T08:36:15;17.00;99.90
12504;DHT22;6316;48.118;-1.690;2023-05-08T08:38:41;17.00;99.90
12504;DHT22;6316;48.118;-1.690;2023-05-08T08:41:07;17.10;99.90
12504;DHT22;6316;48.118;-1.690;2023-05-08T08:43:33;17.20;99.90
12504;DHT22;6316;48.118;-1.690;2023-05-08T08:46:02;17.30;99.90
12504;DHT22;6316;48.118;-1.690;2023-05-08T08:48:34;17.30;99.90
12504;DHT22;6316;48.118;-1.690;2023-05-08T08:51:05;17.40;99.90
12504;DHT22;6316;48.118;-1.690;2023-05-08T08:53:42;17.40;99.90
12504;DHT22;6316;48.118;-1.690;2023-05-08T08:56:10;17.40;99.90
12504;DHT22;6316;48.118;-1.690;2023-05-08T08:58:40;17.50;99.90
12504;DHT22;6316;48.118;-1.690;2023-05-08T09:01:15;17.50;99.90
12504;DHT22;6316;48.118;-1.690;2023-05-08T09:03:41;17.60;99.90
12504;DHT22;6316;48.118;-1.690;2023-05-08T09:06:07;17.70;99.90
12504;DHT22;6316;48.118;-1.690;2023-05-08T09:08:33;18.00;99.90
12504;DHT22;6316;48.118;-1.690;2023-05-08T09:11:00;18.50;99.90
12504;DHT22;6316;48.118;-1.690;2023-05-08T09:13:27;18.90;99.90
12504;DHT22;6316;48.118;-1.690;2023-05-08T09:15:54;19.30;99.90
12504;DHT22;6316;48.118;-1.690;2023-05-08T09:18:19;19.50;99.90
12504;DHT22;6316;48.118;-1.690;2023-05-08T09:20:46;19.50;99.90
12504;DHT22;6316;48.118;-1.690;2023-05-08T09:23:13;19.50;99.90
12504;DHT22;6316;48.118;-1.690;2023-05-08T09:25:42;19.50;99.90
12504;DHT22;6316;48.118;-1.690;2023-05-08T09:28:22;19.50;99.90
12504;DHT22;6316;48.118;-1.690;2023-05-08T09:30:52;19.40;99.90
12504;DHT22;6316;48.118;-1.690;2023-05-08T09:33:20;19.30;99.90
12504;DHT22;6316;48.118;-1.690;2023-05-08T09:35:46;19.30;99.90
12504;DHT22;6316;48.118;-1.690;2023-05-08T09:38:32;19.20;99.90
12504;DHT22;6316;48.118;-1.690;2023-05-08T09:41:14;19.20;99.90
12504;DHT22;6316;48.118;-1.690;2023-05-08T09:43:42;19.20;99.90
12504;DHT22;6316;48.118;-1.690;2023-05-08T09:46:22;19.00;99.90
12504;DHT22;6316;48.118;-1.690;2023-05-08T09:48:55;19.00;99.90
12504;DHT22;6316;48.118;-1.690;2023-05-08T09:51:22;19.10;99.90
12504;DHT22;6316;48.118;-1.690;2023-05-08T09:53:55;19.10;99.90
12504;DHT22;6316;48.118;-1.690;2023-05-08T09:56:35;19.20;99.90
12504;DHT22;6316;48.118;-1.690;2023-05-08T09:59:20;19.30;99.90
12504;DHT22;6316;48.118;-1.690;2023-05-08T10:01:46;19.40;99.90
12504;DHT22;6316;48.118;-1.690;2023-05-08T10:04:13;19.60;99.90
12504;DHT22;6316;48.118;-1.690;2023-05-08T10:06:39;19.70;99.90
12504;DHT22;6316;48.118;-1.690;2023-05-08T10:09:14;19.80;99.90
12504;DHT22;6316;48.118;-1.690;2023-05-08T10:11:41;19.90;99.90
12504;DHT22;6316;48.118;-1.690;2023-05-08T10:14:07;19.90;99.90
12504;DHT22;6316;48.118;-1.690;2023-05-08T10:16:44;19.90;99.90
12504;DHT22;6316;48.118;-1.690;2023-05-08T10:19:23;19.90;99.90
12504;DHT22;6316;48.118;-1.690;2023-05-08T10:21:53;20.00;99.90
12504;DHT22;6316;48.118;-1.690;2023-05-08T10:24:40;20.00;99.90
12504;DHT22;6316;48.118;-1.690;2023-05-08T10:27:16;19.90;99.90
12504;DHT22;6316;48.118;-1.690;2023-05-08T10:29:52;19.80;99.90
12504;DHT22;6316;48.118;-1.690;2023-05-08T10:32:19;19.80;99.90
12504;DHT22;6316;48.118;-1.690;2023-05-08T10:34:48;19.90;99.90
12504;DHT22;6316;48.118;-1.690;2023-05-08T10:37:16;19.90;99.90
12504;DHT22;6316;48.118;-1.690;2023-05-08T10:39:43;19.80;99.90
12504;DHT22;6316;48.118;-1.690;2023-05-08T10:42:10;19.80;99.90
12504;DHT22;6316;48.118;-1.690;2023-05-08T10:44:38;19.80;99.90
12504;DHT22;6316;48.118;-1.690;2023-05-08T10:47:26;20.00;99.90
12504;DHT22;6316;48.118;-1.690;2023-05-08T10:50:15;20.10;99.90
12504;DHT22;6316;48.118;-1.690;2023-05-08T10:55:27;20.30;99.90
12504;DHT22;6316;48.118;-1.690;2023-05-08T11:03:29;20.20;99.90
12504;DHT22;6316;48.118;-1.690;2023-05-08T11:05:56;20.00;99.90
12504;DHT22;6316;48.118;-1.690;2023-05-08T11:08:24;19.90;99.90
12504;DHT22;6316;48.118;-1.690;2023-05-08T11:13:49;19.60;99.90
12504;DHT22;6316;48.118;-1.690;2023-05-08T11:16:15;19.50;99.90
12504;DHT22;6316;48.118;-1.690;2023-05-08T11:19:15;19.40;99.90
12504;DHT22;6316;48.118;-1.690;2023-05-08T11:24:55;19.20;99.90
12504;DHT22;6316;48.118;-1.690;2023-05-08T11:30:24;19.10;99.90
12504;DHT22;6316;48.118;-1.690;2023-05-08T11:33:11;19.20;99.90
12504;DHT22;6316;48.118;-1.690;2023-05-08T11:35:46;19.40;99.90
12504;DHT22;6316;48.118;-1.690;2023-05-08T11:38:31;19.40;99.90
12504;DHT22;6316;48.118;-1.690;2023-05-08T11:41:18;19.40;99.90
12504;DHT22;6316;48.118;-1.690;2023-05-08T11:49:14;19.30;99.90
12504;DHT22;6316;48.118;-1.690;2023-05-08T11:51:49;19.20;99.90
12504;DHT22;6316;48.118;-1.690;2023-05-08T11:54:19;19.20;99.90
12504;DHT22;6316;48.118;-1.690;2023-05-08T11:56:47;19.20;99.90
12504;DHT22;6316;48.118;-1.690;2023-05-08T11:59:13;19.20;99.90
12504;DHT22;6316;48.118;-1.690;2023-05-08T12:01:39;19.20;99.90
12504;DHT22;6316;48.118;-1.690;2023-05-08T12:04:09;19.30;99.90
12504;DHT22;6316;48.118;-1.690;2023-05-08T12:06:37;19.50;99.90
12504;DHT22;6316;48.118;-1.690;2023-05-08T12:09:08;19.60;99.90
12504;DHT22;6316;48.118;-1.690;2023-05-08T12:11:34;19.70;99.90
12504;DHT22;6316;48.118;-1.690;2023-05-08T12:14:00;19.90;99.90
12504;DHT22;6316;48.118;-1.690;2023-05-08T12:16:26;20.00;99.90
12504;DHT22;6316;48.118;-1.690;2023-05-08T12:18:52;20.30;99.90
12504;DHT22;6316;48.118;-1.690;2023-05-08T12:21:20;20.50;99.90
12504;DHT22;6316;48.118;-1.690;2023-05-08T12:23:46;20.60;99.90
12504;DHT22;6316;48.118;-1.690;2023-05-08T12:26:12;20.80;99.90
12504;DHT22;6316;48.118;-1.690;2023-05-08T12:28:38;20.80;99.90
12504;DHT22;6316;48.118;-1.690;2023-05-08T12:31:05;20.90;99.90
12504;DHT22;6316;48.118;-1.690;2023-05-08T12:33:32;20.90;99.90
12504;DHT22;6316;48.118;-1.690;2023-05-08T12:35:58;20.90;99.90
12504;DHT22;6316;48.118;-1.690;2023-05-08T12:38:25;21.00;99.90
12504;DHT22;6316;48.118;-1.690;2023-05-08T12:40:52;21.10;99.90
12504;DHT22;6316;48.118;-1.690;2023-05-08T12:43:20;21.20;99.90
12504;DHT22;6316;48.118;-1.690;2023-05-08T12:45:46;21.40;99.90
12504;DHT22;6316;48.118;-1.690;2023-05-08T12:48:14;21.50;99.90
12504;DHT22;6316;48.118;-1.690;2023-05-08T12:50:43;21.60;99.90
12504;DHT22;6316;48.118;-1.690;2023-05-08T12:55:37;21.50;99.90
12504;DHT22;6316;48.118;-1.690;2023-05-08T12:58:08;21.40;99.90
12504;DHT22;6316;48.118;-1.690;2023-05-08T13:03:09;21.40;99.90
12504;DHT22;6316;48.118;-1.690;2023-05-08T13:05:36;21.30;99.90
12504;DHT22;6316;48.118;-1.690;2023-05-08T13:08:06;21.10;99.90
12504;DHT22;6316;48.118;-1.690;2023-05-08T13:10:51;20.90;99.90
12504;DHT22;6316;48.118;-1.690;2023-05-08T13:13:25;20.70;99.90
12504;DHT22;6316;48.118;-1.690;2023-05-08T13:15:53;20.60;99.90
12504;DHT22;6316;48.118;-1.690;2023-05-08T13:18:20;20.50;99.90
12504;DHT22;6316;48.118;-1.690;2023-05-08T13:20:48;20.50;99.90
12504;DHT22;6316;48.118;-1.690;2023-05-08T13:23:13;20.50;99.90
12504;DHT22;6316;48.118;-1.690;2023-05-08T13:25:39;20.50;99.90
12504;DHT22;6316;48.118;-1.690;2023-05-08T13:28:07;20.50;99.90
12504;DHT22;6316;48.118;-1.690;2023-05-08T13:30:33;20.50;99.90
12504;DHT22;6316;48.118;-1.690;2023-05-08T13:33:00;20.50;99.90
12504;DHT22;6316;48.118;-1.690;2023-05-08T13:35:26;20.50;99.90
12504;DHT22;6316;48.118;-1.690;2023-05-08T13:37:56;20.50;99.90
12504;DHT22;6316;48.118;-1.690;2023-05-08T13:40:23;20.50;99.90
12504;DHT22;6316;48.118;-1.690;2023-05-08T13:42:50;20.50;99.90
12504;DHT22;6316;48.118;-1.690;2023-05-08T13:45:16;20.50;99.90
12504;DHT22;6316;48.118;-1.690;2023-05-08T13:47:46;20.50;99.90
12504;DHT22;6316;48.118;-1.690;2023-05-08T13:50:13;20.50;99.90
12504;DHT22;6316;48.118;-1.690;2023-05-08T13:52:39;20.50;99.90
12504;DHT22;6316;48.118;-1.690;2023-05-08T13:55:06;20.50;99.90
12504;DHT22;6316;48.118;-1.690;2023-05-08T13:57:33;20.50;99.90
12504;DHT22;6316;48.118;-1.690;2023-05-08T13:59:59;20.40;99.90
12504;DHT22;6316;48.118;-1.690;2023-05-08T14:02:25;20.40;99.90
12504;DHT22;6316;48.118;-1.690;2023-05-08T14:04:51;20.50;99.90
12504;DHT22;6316;48.118;-1.690;2023-05-08T14:07:17;20.40;99.90
12504;DHT22;6316;48.118;-1.690;2023-05-08T14:09:44;20.40;99.90
12504;DHT22;6316;48.118;-1.690;2023-05-08T14:12:10;20.40;99.90
12504;DHT22;6316;48.118;-1.690;2023-05-08T14:14:36;20.30;99.90
12504;DHT22;6316;48.118;-1.690;2023-05-08T14:17:03;20.40;99.90
12504;DHT22;6316;48.118;-1.690;2023-05-08T14:19:29;20.40;99.90
12504;DHT22;6316;48.118;-1.690;2023-05-08T14:21:55;20.50;99.90
12504;DHT22;6316;48.118;-1.690;2023-05-08T14:24:21;20.50;99.90
12504;DHT22;6316;48.118;-1.690;2023-05-08T14:26:46;20.50;99.90
12504;DHT22;6316;48.118;-1.690;2023-05-08T14:29:12;20.60;99.90
12504;DHT22;6316;48.118;-1.690;2023-05-08T14:31:38;20.50;99.90
12504;DHT22;6316;48.118;-1.690;2023-05-08T14:34:03;20.50;99.90
12504;DHT22;6316;48.118;-1.690;2023-05-08T14:36:29;20.40;99.90
12504;DHT22;6316;48.118;-1.690;2023-05-08T14:38:55;20.30;99.90
12504;DHT22;6316;48.118;-1.690;2023-05-08T14:41:21;20.30;99.90
12504;DHT22;6316;48.118;-1.690;2023-05-08T14:43:47;20.20;99.90
12504;DHT22;6316;48.118;-1.690;2023-05-08T14:46:15;20.20;99.90
12504;DHT22;6316;48.118;-1.690;2023-05-08T14:48:40;20.10;99.90
12504;DHT22;6316;48.118;-1.690;2023-05-08T14:51:06;20.10;99.90
12504;DHT22;6316;48.118;-1.690;2023-05-08T14:53:32;20.00;99.90
12504;DHT22;6316;48.118;-1.690;2023-05-08T14:55:58;19.90;99.90
12504;DHT22;6316;48.118;-1.690;2023-05-08T14:58:24;19.80;99.90
12504;DHT22;6316;48.118;-1.690;2023-05-08T15:00:50;19.80;99.90
12504;DHT22;6316;48.118;-1.690;2023-05-08T15:03:15;19.70;99.90
12504;DHT22;6316;48.118;-1.690;2023-05-08T15:05:41;19.60;99.90
12504;DHT22;6316;48.118;-1.690;2023-05-08T15:08:08;19.60;99.90
12504;DHT22;6316;48.118;-1.690;2023-05-08T15:10:35;19.50;99.90
12504;DHT22;6316;48.118;-1.690;2023-05-08T15:13:01;19.50;99.90
12504;DHT22;6316;48.118;-1.690;2023-05-08T15:15:26;19.50;99.90
12504;DHT22;6316;48.118;-1.690;2023-05-08T15:17:52;19.50;99.90
12504;DHT22;6316;48.118;-1.690;2023-05-08T15:20:18;19.50;99.90
12504;DHT22;6316;48.118;-1.690;2023-05-08T15:22:45;19.60;99.90
12504;DHT22;6316;48.118;-1.690;2023-05-08T15:25:11;19.60;99.90
12504;DHT22;6316;48.118;-1.690;2023-05-08T15:27:36;19.60;99.90
12504;DHT22;6316;48.118;-1.690;2023-05-08T15:30:03;19.50;99.90
12504;DHT22;6316;48.118;-1.690;2023-05-08T15:32:28;19.50;99.90
12504;DHT22;6316;48.118;-1.690;2023-05-08T15:34:54;19.60;99.90
12504;DHT22;6316;48.118;-1.690;2023-05-08T15:37:20;19.60;99.90
12504;DHT22;6316;48.118;-1.690;2023-05-08T15:39:46;19.70;99.90
12504;DHT22;6316;48.118;-1.690;2023-05-08T15:42:11;19.80;99.90
12504;DHT22;6316;48.118;-1.690;2023-05-08T15:44:37;19.90;99.90
12504;DHT22;6316;48.118;-1.690;2023-05-08T15:47:03;19.90;99.90
12504;DHT22;6316;48.118;-1.690;2023-05-08T15:49:28;20.00;99.90
12504;DHT22;6316;48.118;-1.690;2023-05-08T15:51:54;20.00;99.90
12504;DHT22;6316;48.118;-1.690;2023-05-08T15:54:20;20.10;99.90
12504;DHT22;6316;48.118;-1.690;2023-05-08T15:56:46;20.10;99.90
12504;DHT22;6316;48.118;-1.690;2023-05-08T15:59:11;20.10;99.90
12504;DHT22;6316;48.118;-1.690;2023-05-08T16:01:37;20.10;99.90
12504;DHT22;6316;48.118;-1.690;2023-05-08T16:04:06;20.10;99.90
12504;DHT22;6316;48.118;-1.690;2023-05-08T16:06:31;20.20;99.90
12504;DHT22;6316;48.118;-1.690;2023-05-08T16:08:57;20.20;99.90
12504;DHT22;6316;48.118;-1.690;2023-05-08T16:11:24;20.20;99.90
12504;DHT22;6316;48.118;-1.690;2023-05-08T16:13:50;20.20;99.90
12504;DHT22;6316;48.118;-1.690;2023-05-08T16:16:16;20.20;99.90
12504;DHT22;6316;48.118;-1.690;2023-05-08T16:18:41;20.10;99.90
12504;DHT22;6316;48.118;-1.690;2023-05-08T16:21:10;20.10;99.90
12504;DHT22;6316;48.118;-1.690;2023-05-08T16:23:37;20.00;99.90
12504;DHT22;6316;48.118;-1.690;2023-05-08T16:26:03;20.00;99.90
12504;DHT22;6316;48.118;-1.690;2023-05-08T16:28:29;19.90;99.90